Time;durP1;ratioP1;P1;durP2;ratioP2;P2;SDS_P1;SDS_P2;PMS_P1;PMS_P2;Temp;Humidity;BMP_temperature;BMP_pressure;BME280_temperature;BME280_humidity;BME280_pressure;Samples;Min_cycle;Max_cycle;Signal;HPM_P1;HPM_P2
2024/03/13 00:01:32;;;;;;;18.48;3.72;;;;;;;13.80;100.00;101237.09;10510745;28;20106;-78
2024/03/13 00:06:55;;;;;;;23.92;9.52;;;;;;;13.76;100.00;101228.25;10511336;28;20484;-80
2024/03/13 00:12:18;;;;;;;29.90;6.88;;;;;;;13.83;100.00;101221.22;10511839;28;20210;-79
2024/03/13 00:17:44;;;;;;;22.33;4.32;;;;;;;13.79;100.00;101214.09;10474031;28;20056;-78
2024/03/13 00:23:09;;;;;;;21.23;4.90;;;;;;;13.82;100.00;101208.81;10482663;28;20144;-79
2024/03/13 00:28:32;;;;;;;16.25;4.15;;;;;;;13.66;100.00;101217.50;10470840;28;20114;-79
2024/03/13 00:33:55;;;;;;;22.02;7.10;;;;;;;13.63;100.00;101213.06;10468505;28;20041;-78
2024/03/13 00:39:19;;;;;;;18.45;5.75;;;;;;;13.46;100.00;101212.88;10482632;28;20045;-79
2024/03/13 00:44:42;;;;;;;18.13;4.80;;;;;;;13.55;100.00;101194.41;10500074;28;20531;-78
2024/03/13 00:50:08;;;;;;;17.80;4.85;;;;;;;13.95;100.00;101189.50;10468567;28;20052;-78
2024/03/13 00:55:33;;;;;;;19.08;4.38;;;;;;;14.37;100.00;101186.28;10452827;28;20037;-78
2024/03/13 01:00:55;;;;;;;18.50;4.07;;;;;;;14.47;100.00;101187.25;10481287;28;20118;-79
2024/03/13 01:06:19;;;;;;;19.63;4.05;;;;;;;14.25;100.00;101181.75;10439714;28;20044;-78
2024/03/13 01:11:42;;;;;;;18.15;5.15;;;;;;;14.27;100.00;101181.78;10439874;28;20825;-79
2024/03/13 01:17:04;;;;;;;13.63;3.40;;;;;;;14.27;100.00;101169.38;10480806;28;20052;-79
2024/03/13 01:22:28;;;;;;;17.08;3.70;;;;;;;14.27;100.00;101182.66;10438589;28;20404;-78
2024/03/13 01:27:51;;;;;;;20.73;4.10;;;;;;;14.26;100.00;101169.38;10488929;28;20048;-78
2024/03/13 01:33:14;;;;;;;18.25;3.30;;;;;;;14.08;100.00;101164.81;10485950;28;20043;-78
2024/03/13 01:38:39;;;;;;;29.77;4.97;;;;;;;13.96;100.00;101160.31;10479999;28;20127;-79
2024/03/13 01:55:25;;;;;;;16.45;4.45;;;;;;;13.83;100.00;101142.50;10479497;28;20404;-78
2024/03/13 02:06:29;;;;;;;20.42;3.75;;;;;;;13.46;100.00;101138.59;10437538;28;20056;-78
2024/03/13 02:11:53;;;;;;;21.58;3.63;;;;;;;13.40;100.00;101141.19;10479632;28;20136;-78
2024/03/13 02:17:16;;;;;;;16.83;3.90;;;;;;;13.38;100.00;101137.66;10514767;28;20056;-78
2024/03/13 02:22:39;;;;;;;19.85;3.85;;;;;;;13.50;100.00;101143.09;10435733;28;20059;-78
2024/03/13 02:28:02;;;;;;;20.75;5.85;;;;;;;13.48;100.00;101155.44;10492328;28;20473;-79
2024/03/13 02:33:25;;;;;;;21.23;4.50;;;;;;;13.37;100.00;101143.84;10464325;28;20503;-79
2024/03/13 02:38:49;;;;;;;21.08;4.90;;;;;;;13.07;100.00;101146.09;10425191;28;20640;-79
2024/03/13 02:44:11;;;;;;;23.40;4.57;;;;;;;13.03;100.00;101142.53;10464610;28;20090;-79
2024/03/13 02:49:35;;;;;;;25.42;9.50;;;;;;;13.23;100.00;101152.50;10464329;28;20048;-78
2024/03/13 02:54:58;;;;;;;20.30;5.38;;;;;;;13.28;100.00;101135.78;10416892;28;20583;-78
2024/03/13 03:00:21;;;;;;;22.42;5.32;;;;;;;13.05;100.00;101140.81;10436556;28;20057;-79
2024/03/13 03:05:45;;;;;;;28.27;4.40;;;;;;;12.81;100.00;101139.59;10422818;28;20052;-78
2024/03/13 03:11:08;;;;;;;15.20;3.85;;;;;;;13.09;100.00;101149.66;10451236;28;20138;-79
2024/03/13 03:16:30;;;;;;;33.25;10.68;;;;;;;12.90;100.00;101131.78;10474354;28;20075;-78
2024/03/13 03:21:54;;;;;;;19.83;4.18;;;;;;;12.57;100.00;101141.06;10449079;28;20147;-79
2024/03/13 03:27:17;;;;;;;26.23;5.25;;;;;;;12.53;100.00;101139.28;10462239;28;20052;-78
2024/03/13 03:32:39;;;;;;;23.77;6.82;;;;;;;12.66;100.00;101145.63;10451260;28;20059;-79
2024/03/13 03:38:04;;;;;;;26.75;5.38;;;;;;;12.48;100.00;101132.09;10484801;28;20088;-79
2024/03/13 03:43:27;;;;;;;20.30;4.72;;;;;;;12.28;100.00;101124.78;10465817;28;20041;-79
2024/03/13 03:48:49;;;;;;;26.48;5.90;;;;;;;12.41;100.00;101131.13;10470955;28;20068;-79
2024/03/13 03:54:12;;;;;;;28.45;8.45;;;;;;;12.46;100.00;101134.75;10470831;28;20056;-79
2024/03/13 03:59:38;;;;;;;25.67;8.15;;;;;;;12.33;100.00;101122.22;10451508;28;20048;-78
2024/03/13 04:05:02;;;;;;;23.35;5.60;;;;;;;12.06;100.00;101117.41;10458604;28;20083;-78
2024/03/13 04:10:24;;;;;;;24.85;4.80;;;;;;;12.07;100.00;101113.00;10456359;28;20432;-78
2024/03/13 04:15:50;;;;;;;37.63;12.85;;;;;;;12.09;100.00;101121.84;10469810;28;20493;-79
2024/03/13 04:21:13;;;;;;;40.13;15.60;;;;;;;12.18;100.00;101121.97;10429088;28;20481;-78
2024/03/13 04:26:40;;;;;;;39.10;12.07;;;;;;;12.19;100.00;101116.72;10455191;28;20385;-78
2024/03/13 04:32:03;;;;;;;34.58;6.90;;;;;;;12.03;100.00;101116.44;10452559;28;20147;-78
2024/03/13 04:37:25;;;;;;;29.90;7.35;;;;;;;12.10;100.00;101108.63;10446065;28;20048;-78
2024/03/13 04:42:48;;;;;;;25.67;7.78;;;;;;;12.18;100.00;101119.34;10456873;28;20057;-79
2024/03/13 04:48:10;;;;;;;42.45;15.95;;;;;;;12.37;100.00;101124.03;10467410;28;20048;-78
2024/03/13 04:53:33;;;;;;;35.08;15.20;;;;;;;12.41;100.00;101117.00;10438715;28;20063;-78
2024/03/13 04:58:57;;;;;;;38.88;14.85;;;;;;;12.62;100.00;101120.84;10440168;28;20048;-77
2024/03/13 05:04:22;;;;;;;43.22;18.63;;;;;;;13.70;100.00;101115.84;10428005;28;20515;-78
2024/03/13 05:09:45;;;;;;;35.22;7.82;;;;;;;15.09;100.00;101110.50;10456332;28;20610;-78
2024/03/13 05:15:08;;;;;;;34.33;10.00;;;;;;;16.19;100.00;101115.00;10439784;28;20577;-78
2024/03/13 05:20:31;;;;;;;24.27;4.85;;;;;;;17.47;100.00;101118.03;10439560;28;20053;-78
2024/03/13 05:25:55;;;;;;;26.73;5.95;;;;;;;18.43;100.00;101116.31;10468374;28;20076;-78
2024/03/13 05:31:21;;;;;;;37.85;7.13;;;;;;;19.96;100.00;101110.63;10465338;28;20476;-78
2024/03/13 05:36:45;;;;;;;32.85;8.25;;;;;;;19.75;100.00;101098.50;10468080;28;20094;-79
2024/03/13 05:42:10;;;;;;;30.83;7.18;;;;;;;20.28;100.00;101108.28;10456454;28;20516;-79
2024/03/13 05:47:33;;;;;;;23.17;7.15;;;;;;;20.62;100.00;101098.66;10493519;28;20049;-78
2024/03/13 05:52:56;;;;;;;29.77;8.00;;;;;;;19.58;100.00;101104.13;10452787;28;20055;-79
2024/03/13 05:58:20;;;;;;;34.83;7.50;;;;;;;21.66;94.23;101089.19;10437111;28;20048;-79
2024/03/13 06:03:43;;;;;;;29.52;6.05;;;;;;;24.18;70.92;101086.16;10465198;28;20083;-79
2024/03/13 06:09:08;;;;;;;28.42;5.45;;;;;;;24.70;59.73;101087.00;10451090;28;20501;-80
2024/03/13 06:14:30;;;;;;;26.05;5.15;;;;;;;25.33;56.31;101080.97;10424521;28;20397;-80
2024/03/13 06:19:53;;;;;;;25.23;4.68;;;;;;;25.30;51.17;101078.38;10410928;28;20064;-80
2024/03/13 06:25:16;;;;;;;20.17;3.95;;;;;;;26.59;48.04;101089.97;10452169;28;20049;-79
2024/03/13 06:30:38;;;;;;;12.82;2.92;;;;;;;27.61;42.43;101090.56;10423004;28;20060;-80
2024/03/13 06:36:02;;;;;;;14.88;3.70;;;;;;;26.63;41.44;101084.41;10464179;28;20473;-80
2024/03/13 06:41:28;;;;;;;15.13;2.88;;;;;;;26.65;40.80;101079.81;10451047;28;20049;-79
2024/03/13 06:46:51;;;;;;;10.00;2.25;;;;;;;27.44;39.00;101085.03;10451523;28;20381;-80
2024/03/13 06:52:13;;;;;;;10.38;2.90;;;;;;;29.25;36.59;101089.09;10424301;28;20572;-80
2024/03/13 06:57:36;;;;;;;11.63;2.28;;;;;;;28.94;35.25;101089.94;10437239;28;20416;-81
2024/03/13 07:02:59;;;;;;;7.15;1.67;;;;;;;30.06;33.39;101080.69;10449747;28;20515;-80
2024/03/13 07:08:22;;;;;;;11.75;2.38;;;;;;;30.25;33.62;101082.31;10456375;28;20041;-81
2024/03/13 07:13:45;;;;;;;11.38;2.33;;;;;;;30.61;32.81;101087.34;10480457;28;20044;-81
2024/03/13 07:19:09;;;;;;;12.00;2.53;;;;;;;31.05;31.18;101095.50;10498643;28;20420;-80
2024/03/13 07:24:32;;;;;;;9.68;2.22;;;;;;;31.44;31.46;101097.47;10488014;28;20051;-81
2024/03/13 07:29:54;;;;;;;12.50;2.50;;;;;;;33.23;27.74;101099.50;10457607;28;20091;-81
2024/03/13 07:35:17;;;;;;;19.85;3.10;;;;;;;34.12;24.96;101092.81;10471971;28;20048;-80
2024/03/13 07:40:39;;;;;;;8.07;2.03;;;;;;;34.15;24.72;101090.69;10470539;28;20055;-80
2024/03/13 07:46:02;;;;;;;12.50;2.63;;;;;;;34.94;23.46;101094.53;10471486;28;20049;-81
2024/03/13 07:51:25;;;;;;;16.13;3.65;;;;;;;36.77;22.13;101091.72;10471911;28;20454;-80
2024/03/13 07:56:48;;;;;;;10.68;3.97;;;;;;;36.82;21.34;101091.34;10470837;28;20056;-81
2024/03/13 08:02:10;;;;;;;19.33;8.95;;;;;;;35.67;22.27;101094.84;10456095;28;20179;-79
2024/03/13 08:07:34;;;;;;;22.80;8.73;;;;;;;31.25;26.83;101086.88;10497407;28;20055;-80
2024/03/13 08:12:56;;;;;;;12.15;3.60;;;;;;;32.47;25.81;101092.28;10467702;28;20275;-82
2024/03/13 08:18:21;;;;;;;20.08;4.03;;;;;;;33.15;26.32;101095.53;10470028;28;20520;-81
2024/03/13 08:23:44;;;;;;;15.52;3.60;;;;;;;30.78;28.97;101085.34;10429089;28;20438;-82
2024/03/13 08:29:07;;;;;;;13.48;3.75;;;;;;;26.25;34.11;101095.16;10444334;28;20044;-80
2024/03/13 08:34:31;;;;;;;14.50;3.35;;;;;;;30.03;30.14;101099.06;10471858;28;20048;-81
2024/03/13 08:39:58;;;;;;;15.75;2.63;;;;;;;32.17;27.66;101103.47;10425525;28;20056;-80
2024/03/13 08:45:21;;;;;;;17.17;3.50;;;;;;;33.18;26.75;101101.69;10450911;28;20155;-81
2024/03/13 08:50:44;;;;;;;12.05;1.95;;;;;;;33.38;25.87;101096.63;10445865;28;20293;-82
2024/03/13 08:56:10;;;;;;;11.52;2.22;;;;;;;32.39;27.09;101104.63;10453440;28;20044;-81
2024/03/13 09:01:36;;;;;;;11.45;2.22;;;;;;;32.34;26.72;101104.09;10465329;28;20064;-81
2024/03/13 09:07:00;;;;;;;9.05;2.40;;;;;;;33.58;25.38;101110.59;10446371;28;20052;-83
2024/03/13 09:12:23;;;;;;;9.50;3.28;;;;;;;33.66;23.87;101107.28;10448404;28;20053;-82
2024/03/13 09:17:47;;;;;;;5.57;1.73;;;;;;;34.26;23.82;101117.34;10427835;28;20057;-81
2024/03/13 09:23:11;;;;;;;10.20;2.42;;;;;;;34.95;23.82;101112.75;10427590;28;20048;-82
2024/03/13 09:28:33;;;;;;;9.70;2.13;;;;;;;35.66;23.22;101117.81;10439961;28;20188;-82
2024/03/13 09:34:00;;;;;;;6.65;1.92;;;;;;;35.10;23.29;101115.13;10425476;28;20132;-82
2024/03/13 09:39:27;;;;;;;7.32;1.92;;;;;;;34.10;24.33;101105.75;10471217;28;20114;-81
2024/03/13 09:44:49;;;;;;;5.63;2.08;;;;;;;33.87;24.62;101100.16;10443045;28;20040;-78
2024/03/13 09:50:12;;;;;;;7.57;1.40;;;;;;;34.72;23.69;101099.00;10453496;28;20052;-78
2024/03/13 09:55:35;;;;;;;6.50;1.40;;;;;;;33.84;24.59;101092.19;10460136;28;20040;-80
2024/03/13 10:00:58;;;;;;;5.88;1.60;;;;;;;34.84;22.72;101096.28;10456023;28;20505;-78
2024/03/13 10:06:21;;;;;;;10.38;2.20;;;;;;;34.62;22.65;101100.69;10425073;28;20045;-78
2024/03/13 10:11:46;;;;;;;12.15;3.25;;;;;;;30.58;26.32;101087.56;10415663;28;20052;-78
2024/03/13 10:17:09;;;;;;;8.95;1.60;;;;;;;31.67;25.63;101092.25;10446585;28;20523;-77
2024/03/13 10:22:32;;;;;;;6.43;2.08;;;;;;;33.46;23.48;101066.81;10464278;28;20095;-78
2024/03/13 10:27:55;;;;;;;5.25;1.27;;;;;;;32.93;23.50;101074.34;10411011;28;20044;-78
2024/03/13 10:33:18;;;;;;;3.63;1.45;;;;;;;30.06;26.36;101075.25;10380914;28;20037;-78
2024/03/13 10:38:43;;;;;;;7.90;2.10;;;;;;;27.55;29.49;101076.44;10367033;28;20053;-77
2024/03/13 10:44:07;;;;;;;10.30;1.80;;;;;;;29.90;27.11;101059.91;10378378;28;20041;-78
2024/03/13 10:49:31;;;;;;;4.85;2.63;;;;;;;31.21;25.44;101068.97;10365117;28;20116;-79
2024/03/13 10:54:54;;;;;;;7.07;1.75;;;;;;;31.25;24.89;101057.72;10393593;28;20080;-79
2024/03/13 11:00:21;;;;;;;6.93;2.50;;;;;;;29.70;26.32;101058.38;10379922;28;20041;-78
2024/03/13 11:05:43;;;;;;;3.60;1.05;;;;;;;26.88;29.84;101055.22;10327008;28;20054;-77
2024/03/13 11:11:06;;;;;;;5.20;1.40;;;;;;;26.88;30.05;101052.50;10342029;28;20038;-78
2024/03/13 11:16:32;;;;;;;3.58;1.30;;;;;;;26.95;30.75;101045.88;10352660;28;20570;-77
2024/03/13 11:21:54;;;;;;;4.65;1.08;;;;;;;25.91;31.93;101041.56;10363480;28;20140;-78
2024/03/13 11:27:17;;;;;;;6.68;1.88;;;;;;;25.99;32.87;101025.00;10443579;28;20075;-78
2024/03/13 11:32:40;;;;;;;4.75;1.00;;;;;;;25.51;33.56;101025.25;10461107;28;20056;-77
2024/03/13 11:38:03;;;;;;;4.88;1.33;;;;;;;24.42;35.02;101020.50;10448031;28;20040;-77
2024/03/13 11:43:27;;;;;;;5.88;1.50;;;;;;;24.22;35.30;101010.47;10463002;28;20048;-80
2024/03/13 11:48:51;;;;;;;6.43;1.52;;;;;;;23.67;36.36;101011.53;10454276;28;20255;-77
2024/03/13 11:54:14;;;;;;;6.45;1.65;;;;;;;23.13;37.49;101016.00;10427430;28;20489;-76
2024/03/13 11:59:43;;;;;;;4.72;2.13;;;;;;;22.81;38.38;101022.41;10461990;28;20061;-76
2024/03/13 12:05:07;;;;;;;8.20;1.75;;;;;;;23.16;38.33;101013.22;10459208;28;20409;-76
2024/03/13 12:10:30;;;;;;;7.53;1.33;;;;;;;23.82;38.08;101010.13;10496653;28;20057;-77
2024/03/13 12:15:54;;;;;;;5.18;1.52;;;;;;;24.54;36.75;101001.19;10459346;28;20495;-77
2024/03/13 12:21:17;;;;;;;8.45;1.40;;;;;;;24.87;36.65;100988.19;10463034;28;20044;-78
2024/03/13 12:26:40;;;;;;;3.83;1.52;;;;;;;23.86;41.03;101000.97;10466494;28;20055;-81
2024/03/13 12:32:03;;;;;;;7.55;2.40;;;;;;;23.70;41.88;100994.34;10465094;28;20162;-81
2024/03/13 12:37:27;;;;;;;7.53;1.70;;;;;;;23.24;41.85;100993.16;10465051;28;20080;-79
2024/03/13 12:42:49;;;;;;;6.32;1.20;;;;;;;23.47;41.23;100991.53;10466466;28;20055;-78
2024/03/13 12:48:12;;;;;;;13.48;6.10;;;;;;;23.27;41.07;101002.97;10457781;28;20071;-78
2024/03/13 12:53:36;;;;;;;13.05;4.57;;;;;;;22.85;40.94;101005.22;10445810;28;20036;-76
2024/03/13 12:58:59;;;;;;;6.50;2.80;;;;;;;22.58;41.83;100991.63;10468748;28;20051;-80
2024/03/13 13:04:22;;;;;;;7.00;2.00;;;;;;;22.76;42.18;100989.38;10450622;28;20072;-79
2024/03/13 13:09:47;;;;;;;7.05;1.23;;;;;;;22.79;42.16;100989.25;10450370;28;20530;-78
2024/03/13 13:15:12;;;;;;;2.78;1.52;;;;;;;22.72;42.27;100980.44;10450930;28;20306;-77
2024/03/13 13:20:35;;;;;;;8.13;1.27;;;;;;;22.74;41.79;100975.94;10463778;28;20437;-77
2024/03/13 13:25:58;;;;;;;5.50;1.23;;;;;;;22.55;41.34;100983.69;10439724;28;20067;-78
2024/03/13 13:31:21;;;;;;;3.53;1.27;;;;;;;22.55;41.93;100980.09;10446562;28;20041;-78
2024/03/13 13:36:44;;;;;;;6.13;1.50;;;;;;;22.49;42.04;100980.28;10465429;28;20048;-83
2024/03/13 13:42:07;;;;;;;4.40;1.00;;;;;;;22.55;41.81;100980.97;10447664;28;20596;-84
2024/03/13 13:47:31;;;;;;;4.80;1.35;;;;;;;22.69;41.00;100977.88;10467786;28;20057;-87
2024/03/13 13:52:55;;;;;;;5.53;1.10;;;;;;;22.17;42.64;100974.03;10464898;28;20048;-77
2024/03/13 13:58:18;;;;;;;4.78;0.85;;;;;;;21.84;44.01;100970.47;10457889;28;20049;-76
2024/03/13 14:03:41;;;;;;;4.60;1.30;;;;;;;21.61;45.29;100982.72;10460897;28;20106;-75
2024/03/13 14:09:05;;;;;;;4.70;1.13;;;;;;;21.47;46.42;100983.97;10460905;28;20063;-77
2024/03/13 14:14:29;;;;;;;5.85;1.10;;;;;;;21.59;46.94;100987.28;10460372;28;20400;-77
2024/03/13 14:19:55;;;;;;;3.93;1.43;;;;;;;22.34;46.31;100970.84;10431354;28;20044;-75
2024/03/13 14:25:18;;;;;;;8.30;3.40;;;;;;;22.15;47.34;100980.38;10473914;28;20044;-76
2024/03/13 14:30:41;;;;;;;4.63;1.10;;;;;;;21.85;48.97;100985.69;10440175;28;20036;-76
2024/03/13 14:36:04;;;;;;;7.35;1.30;;;;;;;21.59;52.28;100988.19;10459884;28;20068;-78
2024/03/13 14:41:28;;;;;;;5.47;1.25;;;;;;;21.29;56.34;100984.44;10434016;28;20515;-78
2024/03/13 14:46:50;;;;;;;4.05;1.30;;;;;;;20.95;61.57;100988.81;10446267;28;20052;-77
2024/03/13 14:52:14;;;;;;;6.05;1.20;;;;;;;20.67;63.71;100991.28;10458542;28;20052;-75
2024/03/13 14:57:40;;;;;;;7.80;1.40;;;;;;;20.42;65.37;100990.00;10445851;28;20063;-75
2024/03/13 15:03:04;;;;;;;5.53;1.23;;;;;;;20.29;67.97;100982.19;10439713;28;20056;-76
2024/03/13 15:08:28;;;;;;;16.90;8.18;;;;;;;20.22;70.21;100987.72;10438754;28;20049;-75
2024/03/13 15:13:51;;;;;;;6.90;2.35;;;;;;;20.04;72.82;100996.13;10441419;28;20045;-75
2024/03/13 15:19:14;;;;;;;19.42;10.30;;;;;;;19.89;74.15;100992.81;10448197;28;20045;-75
2024/03/13 15:24:38;;;;;;;9.55;3.70;;;;;;;19.77;76.72;101003.78;10468150;28;20564;-74
2024/03/13 15:30:01;;;;;;;14.13;3.97;;;;;;;19.59;81.71;101004.09;10429812;28;20075;-77
2024/03/13 15:35:24;;;;;;;13.55;5.40;;;;;;;19.22;96.61;101016.31;10455247;28;20049;-74
2024/03/13 15:40:47;;;;;;;12.35;4.20;;;;;;;18.93;100.00;101009.59;10441647;28;20048;-75
2024/03/13 15:46:11;;;;;;;9.98;3.47;;;;;;;18.82;100.00;101027.63;10482707;28;20484;-75
2024/03/13 15:51:34;;;;;;;17.00;6.05;;;;;;;18.90;100.00;101033.75;10468669;28;20452;-75
2024/03/13 15:56:58;;;;;;;13.65;4.43;;;;;;;18.66;100.00;101029.59;10447220;28;20482;-75
2024/03/13 16:02:20;;;;;;;13.90;6.13;;;;;;;18.59;100.00;101035.94;10448301;28;20054;-76
2024/03/13 16:07:43;;;;;;;7.15;3.60;;;;;;;18.73;100.00;101026.84;10443185;28;20547;-75
2024/03/13 16:13:06;;;;;;;9.18;3.75;;;;;;;18.67;100.00;101035.84;10467080;28;20259;-75
2024/03/13 16:18:29;;;;;;;10.63;3.60;;;;;;;18.13;100.00;101045.34;10453193;28;20048;-74
2024/03/13 16:23:52;;;;;;;11.88;2.85;;;;;;;17.94;100.00;101044.66;10445241;28;20171;-75
2024/03/13 16:29:15;;;;;;;12.10;2.20;;;;;;;17.75;100.00;101051.09;10417380;28;20052;-74
2024/03/13 16:34:38;;;;;;;16.02;8.55;;;;;;;17.70;100.00;101048.47;10459488;28;20091;-75
2024/03/13 16:40:03;;;;;;;11.90;5.53;;;;;;;18.05;100.00;101057.94;10456713;28;20063;-75
2024/03/13 16:45:26;;;;;;;6.97;3.78;;;;;;;18.11;100.00;101060.53;10453791;28;20055;-75
2024/03/13 16:50:49;;;;;;;12.57;2.92;;;;;;;18.13;100.00;101070.28;10449778;28;20045;-75
2024/03/13 16:56:12;;;;;;;7.85;1.92;;;;;;;17.66;100.00;101080.53;10450634;28;20044;-75
2024/03/13 17:01:38;;;;;;;11.90;2.63;;;;;;;17.53;100.00;101071.69;10452680;28;20041;-75
2024/03/13 17:07:02;;;;;;;21.13;8.23;;;;;;;17.68;100.00;101070.72;10493661;28;20040;-74
2024/03/13 17:12:26;;;;;;;14.75;4.97;;;;;;;17.76;100.00;101071.56;10466844;28;20044;-75
2024/03/13 17:17:50;;;;;;;6.55;3.65;;;;;;;17.45;100.00;101069.13;10493349;28;20056;-74
2024/03/13 17:23:13;;;;;;;8.35;2.90;;;;;;;16.98;100.00;101073.88;10465320;28;20107;-74
2024/03/13 17:28:35;;;;;;;9.38;2.83;;;;;;;16.48;100.00;101080.28;10478893;28;20151;-75
2024/03/13 17:33:58;;;;;;;15.43;10.38;;;;;;;16.04;100.00;101075.06;10464984;28;20079;-74
2024/03/13 17:39:21;;;;;;;10.02;5.13;;;;;;;16.00;100.00;101081.31;10450909;28;20145;-74
2024/03/13 17:44:44;;;;;;;9.65;7.05;;;;;;;15.90;100.00;101085.72;10450508;28;20048;-74
2024/03/13 17:50:08;;;;;;;9.65;4.65;;;;;;;15.86;100.00;101083.09;10452893;28;20079;-75
2024/03/13 17:55:31;;;;;;;8.77;4.93;;;;;;;16.00;100.00;101083.06;10421401;28;20103;-75
2024/03/13 18:00:54;;;;;;;5.30;2.45;;;;;;;16.15;100.00;101096.34;10446128;28;20048;-74
2024/03/13 18:06:21;;;;;;;8.27;2.30;;;;;;;15.94;100.00;101090.19;10448887;28;20107;-74
2024/03/13 18:11:44;;;;;;;7.28;1.88;;;;;;;15.79;100.00;101094.63;10441296;28;20135;-75
2024/03/13 18:17:08;;;;;;;2.92;1.33;;;;;;;16.05;100.00;101097.25;10460824;28;20656;-75
2024/03/13 18:22:31;;;;;;;4.53;1.30;;;;;;;16.20;100.00;101108.78;10452932;28;20147;-77
2024/03/13 18:27:54;;;;;;;3.28;1.33;;;;;;;16.04;100.00;101104.38;10448920;28;20052;-74
2024/03/13 18:33:17;;;;;;;4.03;2.15;;;;;;;15.84;100.00;101112.38;10447683;28;20055;-75
2024/03/13 18:38:40;;;;;;;7.05;6.05;;;;;;;15.85;100.00;101118.59;10445767;28;20040;-74
2024/03/13 18:44:02;;;;;;;6.28;2.58;;;;;;;15.73;100.00;101116.81;10490769;28;20044;-74
2024/03/13 18:49:26;;;;;;;4.97;2.80;;;;;;;15.93;100.00;101116.81;10444591;28;20076;-75
2024/03/13 18:54:49;;;;;;;5.90;2.22;;;;;;;15.55;100.00;101114.16;10456019;28;20392;-75
2024/03/13 19:00:16;;;;;;;3.58;2.42;;;;;;;15.58;100.00;101119.47;10443555;28;20170;-74
2024/03/13 19:05:40;;;;;;;7.90;2.83;;;;;;;15.72;100.00;101122.13;10433101;28;20040;-74
2024/03/13 19:11:04;;;;;;;5.22;2.42;;;;;;;15.79;100.00;101121.25;10457947;28;20059;-76
2024/03/13 19:16:27;;;;;;;7.18;2.40;;;;;;;15.84;100.00;101130.13;10459626;28;20132;-75
2024/03/13 19:21:51;;;;;;;5.55;1.90;;;;;;;15.69;100.00;101136.31;10475345;28;20044;-76
2024/03/13 19:27:14;;;;;;;4.10;1.98;;;;;;;15.67;100.00;101129.22;10469975;28;20106;-75
2024/03/13 19:32:36;;;;;;;4.95;1.75;;;;;;;15.59;100.00;101120.34;10438191;28;20052;-76
2024/03/13 19:37:59;;;;;;;6.82;2.85;;;;;;;15.64;100.00;101121.22;10432015;28;20113;-74
2024/03/13 19:43:23;;;;;;;4.53;2.40;;;;;;;15.85;100.00;101126.56;10451237;28;20404;-74
2024/03/13 19:48:46;;;;;;;7.97;2.75;;;;;;;15.86;100.00;101128.34;10441560;28;20100;-74
2024/03/13 19:54:10;;;;;;;6.82;2.33;;;;;;;15.77;100.00;101123.91;10477195;28;20098;-75
2024/03/13 19:59:33;;;;;;;4.32;2.20;;;;;;;15.87;100.00;101132.78;10456457;28;20036;-74
2024/03/13 20:04:56;;;;;;;4.72;2.10;;;;;;;15.78;100.00;101125.69;10444744;28;20448;-75
2024/03/13 20:10:24;;;;;;;6.18;2.30;;;;;;;15.69;100.00;101117.69;10440958;28;20052;-75
2024/03/13 20:15:48;;;;;;;5.35;2.95;;;;;;;15.78;100.00;101112.38;10447841;28;20041;-74
2024/03/13 20:21:11;;;;;;;6.72;3.95;;;;;;;15.73;100.00;101114.16;10452094;28;20048;-74
2024/03/13 20:26:40;;;;;;;5.45;2.67;;;;;;;15.42;100.00;101113.22;10440025;28;20056;-76
2024/03/13 20:32:03;;;;;;;5.00;1.60;;;;;;;15.14;100.00;101106.06;10468296;28;20054;-74
2024/03/13 20:37:27;;;;;;;7.90;2.65;;;;;;;15.17;100.00;101119.34;10441543;28;20041;-75
2024/03/13 20:42:50;;;;;;;9.82;4.05;;;;;;;15.26;100.00;101122.03;10453321;28;20484;-74
2024/03/13 20:48:13;;;;;;;8.73;2.17;;;;;;;15.00;100.00;101126.41;10452276;28;20049;-74
2024/03/13 20:53:36;;;;;;;13.27;6.78;;;;;;;14.85;100.00;101134.31;10452441;28;20048;-74
2024/03/13 20:58:59;;;;;;;10.75;5.30;;;;;;;14.77;100.00;101136.06;10452416;28;20071;-75
2024/03/13 21:04:22;;;;;;;24.05;14.48;;;;;;;14.54;100.00;101135.94;10493540;28;20075;-74
2024/03/13 21:09:44;;;;;;;8.85;4.38;;;;;;;14.41;100.00;101142.06;10452160;28;20110;-74
2024/03/13 21:15:09;;;;;;;15.18;6.00;;;;;;;14.24;100.00;101132.16;10466665;28;20139;-74
2024/03/13 21:20:32;;;;;;;15.65;7.88;;;;;;;13.94;100.00;101129.31;10451930;28;20053;-74
2024/03/13 21:25:55;;;;;;;13.85;4.25;;;;;;;13.77;100.00;101131.84;10463894;28;20527;-75
2024/03/13 21:31:17;;;;;;;17.30;6.13;;;;;;;13.61;100.00;101131.69;10451441;28;20044;-74
2024/03/13 21:36:40;;;;;;;8.20;3.28;;;;;;;13.53;100.00;101132.50;10456821;28;20044;-74
2024/03/13 21:42:03;;;;;;;7.47;2.85;;;;;;;13.54;100.00;101138.69;10464254;28;20071;-74
2024/03/13 21:47:25;;;;;;;5.82;2.50;;;;;;;13.36;100.00;101141.16;10441584;28;20494;-74
2024/03/13 21:52:48;;;;;;;4.38;2.10;;;;;;;13.02;100.00;101131.91;10458621;28;20286;-75
2024/03/13 21:58:11;;;;;;;5.57;1.75;;;;;;;12.84;100.00;101129.06;10429406;28;20042;-74
2024/03/13 22:03:34;;;;;;;10.32;2.30;;;;;;;12.84;100.00;101123.75;10448304;28;20048;-74
2024/03/13 22:08:56;;;;;;;8.52;1.98;;;;;;;12.77;100.00;101118.38;10437604;28;20048;-74
2024/03/13 22:14:19;;;;;;;33.30;20.95;;;;;;;12.76;100.00;101129.84;10432251;28;20052;-74
2024/03/13 22:19:42;;;;;;;7.72;2.05;;;;;;;12.60;100.00;101124.34;10437472;28;20130;-74
2024/03/13 22:25:05;;;;;;;3.90;1.85;;;;;;;12.44;100.00;101136.47;10461034;28;20076;-75
2024/03/13 22:30:27;;;;;;;11.68;4.03;;;;;;;12.43;100.00;101140.00;10461940;28;20090;-74
2024/03/13 22:35:50;;;;;;;9.10;2.10;;;;;;;12.24;100.00;101146.78;10448595;28;20044;-74
2024/03/13 22:41:13;;;;;;;6.63;1.90;;;;;;;12.53;100.00;101144.56;10462631;28;20044;-74
2024/03/13 22:46:35;;;;;;;6.90;3.00;;;;;;;12.87;100.00;101139.69;10447937;28;20058;-74
2024/03/13 22:51:58;;;;;;;7.70;2.10;;;;;;;12.57;100.00;101142.84;10489364;28;20061;-74
2024/03/13 22:57:20;;;;;;;4.97;1.60;;;;;;;12.26;100.00;101146.81;10445341;28;20101;-75
2024/03/13 23:02:45;;;;;;;3.17;1.80;;;;;;;12.05;100.00;101149.13;10431691;28;20102;-75
2024/03/13 23:08:08;;;;;;;6.05;1.80;;;;;;;12.19;100.00;101134.34;10447402;28;20431;-74
2024/03/13 23:13:30;;;;;;;5.70;2.67;;;;;;;12.21;100.00;101140.53;10439572;28;20067;-74
2024/03/13 23:18:54;;;;;;;6.85;2.80;;;;;;;12.09;100.00;101130.66;10473493;28;20138;-74
2024/03/13 23:24:17;;;;;;;7.90;3.50;;;;;;;12.04;100.00;101131.47;10453822;28;20064;-75
2024/03/13 23:29:39;;;;;;;6.88;4.28;;;;;;;11.81;100.00;101134.66;10446781;28;20044;-75
2024/03/13 23:35:05;;;;;;;4.60;1.98;;;;;;;11.84;100.00;101120.56;10426245;28;20488;-74
2024/03/13 23:40:28;;;;;;;11.00;6.95;;;;;;;11.91;100.00;101117.16;10472090;28;20053;-74
2024/03/13 23:45:51;;;;;;;4.82;2.10;;;;;;;11.94;100.00;101112.81;10475036;28;20404;-75
2024/03/13 23:51:15;;;;;;;5.05;2.40;;;;;;;11.82;100.00;101103.78;10464506;28;20049;-74
2024/03/13 23:56:38;;;;;;;5.78;2.70;;;;;;;11.71;100.00;101097.41;10468697;28;20175;-74
